Time;durP1;ratioP1;P1;durP2;ratioP2;P2;SDS_P1;SDS_P2;PMS_P1;PMS_P2;Temp;Humidity;BMP_temperature;BMP_pressure;BME280_temperature;BME280_humidity;BME280_pressure;Samples;Min_cycle;Max_cycle;Signal;HPM_P1;HPM_P2
2023/10/17 00:01:35;;;;;;;17.58;3.60;;;;;;;;;;5014035;28;20042;-39
2023/10/17 00:07:05;;;;;;;23.15;3.67;;;;;;;;;;5011605;28;20124;-37
2023/10/17 00:09:42;;;;;;;20.65;3.00;;;;;;;;;;5010011;28;20045;-39
2023/10/17 00:14:45;;;;;;;19.00;3.80;;;;;;;;;;5014223;28;20038;-36
2023/10/17 00:17:16;;;;;;;22.95;3.97;;;;;;;;;;5013677;28;20034;-37
2023/10/17 00:19:44;;;;;;;20.77;3.97;;;;;;;;;;5013519;28;20042;-37
2023/10/17 00:22:18;;;;;;;14.45;4.00;;;;;;;;;;5013098;28;20034;-37
2023/10/17 00:24:46;;;;;;;13.50;3.60;;;;;;;;;;5012440;28;20125;-37
2023/10/17 00:27:14;;;;;;;16.27;3.75;;;;;;;;;;5015155;28;20030;-37
2023/10/17 00:29:41;;;;;;;26.45;4.25;;;;;;;;;;5028004;28;20036;-37
2023/10/17 00:32:12;;;;;;;18.13;4.55;;;;;;;;;;5023759;28;20083;-37
2023/10/17 00:34:40;;;;;;;18.37;4.03;;;;;;;;;;5019510;28;20069;-37
2023/10/17 00:37:11;;;;;;;21.20;4.00;;;;;;;;;;5028663;28;20037;-39
2023/10/17 00:39:38;;;;;;;20.40;4.20;;;;;;;;;;5013639;28;20091;-39
2023/10/17 00:44:33;;;;;;;19.27;3.90;;;;;;;;;;5015114;28;20524;-38
2023/10/17 00:47:02;;;;;;;18.10;3.65;;;;;;;;;;5016884;28;20798;-37
2023/10/17 00:49:33;;;;;;;15.00;3.88;;;;;;;;;;5019635;28;20045;-37
2023/10/17 00:52:15;;;;;;;16.52;3.88;;;;;;;;;;5024412;28;20040;-38
2023/10/17 00:54:42;;;;;;;22.02;5.15;;;;;;;;;;5015019;28;20369;-39
2023/10/17 00:57:15;;;;;;;27.50;7.70;;;;;;;;;;5015150;28;20033;-39
2023/10/17 00:59:55;;;;;;;25.20;7.13;;;;;;;;;;5014987;28;20570;-39
2023/10/17 01:02:23;;;;;;;28.90;7.78;;;;;;;;;;5013384;28;20087;-39
2023/10/17 01:04:51;;;;;;;22.45;8.50;;;;;;;;;;5014931;28;20048;-36
2023/10/17 01:07:31;;;;;;;17.92;6.95;;;;;;;;;;5010315;28;20025;-40
2023/10/17 01:10:17;;;;;;;26.88;7.18;;;;;;;;;;5011688;28;20037;-39
2023/10/17 01:13:04;;;;;;;29.40;6.88;;;;;;;;;;5012747;28;20484;-41
2023/10/17 01:15:32;;;;;;;32.35;6.07;;;;;;;;;;5012965;28;20419;-41
2023/10/17 01:18:06;;;;;;;25.92;6.13;;;;;;;;;;5012567;28;20026;-40
2023/10/17 01:20:33;;;;;;;22.38;5.47;;;;;;;;;;5015604;28;20022;-40
2023/10/17 01:23:01;;;;;;;15.93;5.38;;;;;;;;;;5012827;28;20492;-39
2023/10/17 01:25:35;;;;;;;30.23;6.35;;;;;;;;;;5015661;28;20384;-39
2023/10/17 01:28:03;;;;;;;38.80;6.72;;;;;;;;;;5010720;28;20500;-39
2023/10/17 01:30:32;;;;;;;35.75;5.93;;;;;;;;;;5003129;28;20095;-37
2023/10/17 01:33:00;;;;;;;39.40;6.72;;;;;;;;;;4997303;28;20040;-36
2023/10/17 01:35:27;;;;;;;32.60;6.63;;;;;;;;;;5003159;28;20129;-36
2023/10/17 01:37:57;;;;;;;32.50;5.53;;;;;;;;;;5001427;28;20018;-36
2023/10/17 01:40:27;;;;;;;24.67;5.93;;;;;;;;;;5002079;28;20396;-36
2023/10/17 01:42:56;;;;;;;29.80;6.35;;;;;;;;;;5002178;28;20112;-36
2023/10/17 01:45:25;;;;;;;20.88;5.88;;;;;;;;;;4999249;28;20038;-36
2023/10/17 01:47:53;;;;;;;24.58;5.25;;;;;;;;;;4996482;28;20369;-36
2023/10/17 01:50:20;;;;;;;23.58;5.22;;;;;;;;;;5003648;28;20455;-36
2023/10/17 01:52:49;;;;;;;18.10;5.07;;;;;;;;;;5003088;28;20182;-36
2023/10/17 01:55:16;;;;;;;21.98;5.07;;;;;;;;;;4999299;28;20049;-37
2023/10/17 01:57:44;;;;;;;21.25;5.22;;;;;;;;;;5008112;28;20038;-36
2023/10/17 02:02:59;;;;;;;22.70;5.10;;;;;;;;;;4991947;28;20026;-35
2023/10/17 02:05:27;;;;;;;22.88;5.10;;;;;;;;;;5003427;28;20030;-36
2023/10/17 02:07:55;;;;;;;20.77;5.32;;;;;;;;;;5006188;28;20121;-36
2023/10/17 02:10:25;;;;;;;20.13;4.55;;;;;;;;;;5011350;28;20033;-36
2023/10/17 02:12:52;;;;;;;17.58;4.68;;;;;;;;;;5003461;28;20500;-34
2023/10/17 02:15:19;;;;;;;19.75;5.13;;;;;;;;;;4992462;28;20019;-34
2023/10/17 02:17:47;;;;;;;17.42;4.53;;;;;;;;;;4992321;28;20034;-34
2023/10/17 02:20:36;;;;;;;18.75;4.60;;;;;;;;;;4992455;28;20370;-34
2023/10/17 02:23:08;;;;;;;16.52;4.68;;;;;;;;;;4992230;28;20038;-34
2023/10/17 02:25:37;;;;;;;20.35;4.70;;;;;;;;;;4992436;28;20034;-34
2023/10/17 02:28:04;;;;;;;15.07;3.60;;;;;;;;;;4992350;28;20042;-34
2023/10/17 02:30:31;;;;;;;15.82;3.78;;;;;;;;;;4992238;28;20027;-34
2023/10/17 02:33:01;;;;;;;17.00;3.83;;;;;;;;;;4991115;28;20023;-34
2023/10/17 02:35:47;;;;;;;14.32;4.20;;;;;;;;;;4992391;28;20030;-35
2023/10/17 02:38:15;;;;;;;15.88;3.72;;;;;;;;;;4992079;28;20042;-35
2023/10/17 02:40:51;;;;;;;16.42;4.45;;;;;;;;;;4992260;28;20109;-35
2023/10/17 02:43:18;;;;;;;13.55;3.85;;;;;;;;;;4992159;28;20050;-35
2023/10/17 02:45:45;;;;;;;13.52;4.18;;;;;;;;;;4992261;28;20029;-35
2023/10/17 02:48:23;;;;;;;12.93;3.80;;;;;;;;;;4993934;28;20026;-35
2023/10/17 02:51:03;;;;;;;15.18;3.58;;;;;;;;;;4996156;28;20039;-35
2023/10/17 02:53:34;;;;;;;19.42;3.88;;;;;;;;;;4996171;28;20038;-34
2023/10/17 02:56:18;;;;;;;15.75;3.42;;;;;;;;;;4996122;28;20524;-35
2023/10/17 02:59:13;;;;;;;10.02;3.42;;;;;;;;;;4996109;28;20034;-35
2023/10/17 03:01:42;;;;;;;13.50;3.70;;;;;;;;;;4995755;28;20034;-35
2023/10/17 03:04:12;;;;;;;8.98;3.15;;;;;;;;;;4995967;28;20065;-34
2023/10/17 03:06:44;;;;;;;11.90;3.65;;;;;;;;;;4995954;28;20481;-34
2023/10/17 03:12:07;;;;;;;12.07;3.50;;;;;;;;;;4996220;28;20031;-35
2023/10/17 03:15:18;;;;;;;12.35;3.30;;;;;;;;;;4995868;28;20437;-35
2023/10/17 03:17:27;;;;;;;10.45;3.53;;;;;;;;;;4995610;28;20389;-35
2023/10/17 03:19:57;;;;;;;13.63;3.85;;;;;;;;;;4995669;28;20129;-35
2023/10/17 03:22:27;;;;;;;11.65;3.25;;;;;;;;;;4995628;28;20038;-35
2023/10/17 03:25:18;;;;;;;16.25;3.78;;;;;;;;;;4995548;28;20030;-35
2023/10/17 03:27:49;;;;;;;8.70;3.22;;;;;;;;;;4995462;28;20545;-35
2023/10/17 03:30:19;;;;;;;12.40;3.53;;;;;;;;;;5011525;28;20068;-35
2023/10/17 03:35:29;;;;;;;10.38;3.25;;;;;;;;;;5034786;28;20029;-35
2023/10/17 03:37:56;;;;;;;9.55;3.08;;;;;;;;;;5034765;28;20041;-35
2023/10/17 03:40:30;;;;;;;11.70;3.15;;;;;;;;;;5034578;28;20503;-35
2023/10/17 03:43:12;;;;;;;11.80;3.38;;;;;;;;;;5034435;28;20471;-35
2023/10/17 03:46:02;;;;;;;8.80;3.10;;;;;;;;;;5034586;28;20104;-35
2023/10/17 03:48:29;;;;;;;8.60;2.80;;;;;;;;;;5034370;28;20861;-35
2023/10/17 03:51:08;;;;;;;10.30;3.15;;;;;;;;;;5034567;28;20071;-35
2023/10/17 03:53:47;;;;;;;9.95;3.30;;;;;;;;;;5034423;28;20029;-35
2023/10/17 03:56:24;;;;;;;8.80;2.78;;;;;;;;;;5034434;28;20026;-34
2023/10/17 04:01:22;;;;;;;8.98;3.28;;;;;;;;;;5033991;28;20034;-35
2023/10/17 04:03:56;;;;;;;6.82;2.70;;;;;;;;;;5034290;28;20442;-35
2023/10/17 04:06:34;;;;;;;10.60;2.88;;;;;;;;;;5034296;28;20030;-35
2023/10/17 04:11:53;;;;;;;6.15;2.60;;;;;;;;;;5034363;28;20499;-34
2023/10/17 04:14:30;;;;;;;9.75;2.83;;;;;;;;;;5034034;28;20387;-35
2023/10/17 04:16:57;;;;;;;11.07;2.80;;;;;;;;;;5034023;28;20029;-35
2023/10/17 04:19:24;;;;;;;7.82;2.72;;;;;;;;;;5033861;28;20504;-35
2023/10/17 04:21:58;;;;;;;10.60;2.70;;;;;;;;;;5033907;28;20029;-35
2023/10/17 04:24:34;;;;;;;8.52;2.75;;;;;;;;;;5033934;28;20116;-35
2023/10/17 04:29:50;;;;;;;7.63;2.50;;;;;;;;;;5033647;28;20034;-35
2023/10/17 04:32:20;;;;;;;6.30;2.35;;;;;;;;;;5033665;28;20021;-35
2023/10/17 04:34:48;;;;;;;7.88;2.55;;;;;;;;;;5033723;28;20025;-35
2023/10/17 04:37:24;;;;;;;5.50;2.10;;;;;;;;;;5033629;28;20510;-35
2023/10/17 04:40:27;;;;;;;9.48;2.28;;;;;;;;;;5033423;28;20026;-34
2023/10/17 04:42:56;;;;;;;7.25;2.22;;;;;;;;;;5033079;28;20025;-35
2023/10/17 04:45:28;;;;;;;6.40;2.20;;;;;;;;;;5033511;28;20038;-35
2023/10/17 04:50:56;;;;;;;7.10;2.13;;;;;;;;;;5024780;28;20116;-34
2023/10/17 04:53:35;;;;;;;6.65;2.25;;;;;;;;;;5033624;28;20748;-35
2023/10/17 04:56:11;;;;;;;4.10;2.00;;;;;;;;;;5033222;28;20080;-35
2023/10/17 04:58:56;;;;;;;5.55;1.90;;;;;;;;;;5033166;28;20499;-34
2023/10/17 05:01:36;;;;;;;5.93;2.38;;;;;;;;;;5032776;28;20029;-36
2023/10/17 06:16:49;;;;;;;8.55;2.35;;;;;;;;;;5013051;28;20034;-36
2023/10/17 06:18:42;;;;;;;5.40;1.88;;;;;;;;;;4992445;28;20092;-34
2023/10/17 06:21:18;;;;;;;4.82;1.88;;;;;;;;;;4992481;28;20046;-34
2023/10/17 06:34:18;;;;;;;5.53;1.65;;;;;;;;;;4992576;28;20551;-35
2023/10/17 06:36:49;;;;;;;3.65;1.40;;;;;;;;;;4992397;28;20465;-34
2023/10/17 06:39:19;;;;;;;6.80;1.67;;;;;;;;;;4992058;28;20501;-35
2023/10/17 06:41:47;;;;;;;3.38;1.65;;;;;;;;;;4992178;28;20517;-36
2023/10/17 06:44:23;;;;;;;4.20;1.60;;;;;;;;;;4992131;28;20129;-36
2023/10/17 06:47:07;;;;;;;5.35;1.88;;;;;;;;;;4992180;28;20084;-36
2023/10/17 06:54:50;;;;;;;3.00;1.50;;;;;;;;;;4992431;28;20034;-36
2023/10/17 06:57:20;;;;;;;2.80;1.23;;;;;;;;;;4992027;28;20026;-36
2023/10/17 06:59:50;;;;;;;5.78;1.60;;;;;;;;;;4992013;28;20508;-36
2023/10/17 07:05:24;;;;;;;4.07;1.60;;;;;;;;;;4995629;28;20123;-36
2023/10/17 07:07:54;;;;;;;5.22;1.55;;;;;;;;;;4992112;28;20038;-36
2023/10/17 07:13:17;;;;;;;3.10;1.65;;;;;;;;;;4992331;28;20084;-36
2023/10/17 07:15:44;;;;;;;3.53;1.58;;;;;;;;;;4982216;28;20038;-36
2023/10/17 07:23:42;;;;;;;3.17;1.33;;;;;;;;;;4991895;28;20027;-36
2023/10/17 07:28:59;;;;;;;2.88;1.40;;;;;;;;;;4991989;28;20049;-36
2023/10/17 07:31:26;;;;;;;2.80;1.60;;;;;;;;;;4992057;28;20044;-36
2023/10/17 07:34:07;;;;;;;7.00;1.95;;;;;;;;;;4993051;28;20022;-36
2023/10/17 07:36:34;;;;;;;3.88;1.85;;;;;;;;;;4995347;28;20054;-36
2023/10/17 07:39:24;;;;;;;4.50;1.95;;;;;;;;;;4995370;28;20045;-36
2023/10/17 07:41:54;;;;;;;4.88;2.28;;;;;;;;;;4995175;28;20034;-36
2023/10/17 07:44:25;;;;;;;5.32;2.03;;;;;;;;;;4995043;28;20780;-36
2023/10/17 07:49:37;;;;;;;6.65;2.50;;;;;;;;;;4995052;28;20053;-36
2023/10/17 07:52:26;;;;;;;6.32;2.05;;;;;;;;;;4995131;28;20042;-35
2023/10/17 07:54:58;;;;;;;4.57;1.83;;;;;;;;;;4994880;28;20876;-35
2023/10/17 07:57:40;;;;;;;4.60;1.85;;;;;;;;;;4995036;28;20582;-34
2023/10/17 08:02:55;;;;;;;5.20;1.95;;;;;;;;;;4995257;28;20037;-34
2023/10/17 08:05:23;;;;;;;3.22;1.75;;;;;;;;;;4994907;28;20026;-34
2023/10/17 08:08:01;;;;;;;4.45;1.70;;;;;;;;;;4994745;28;20164;-34
2023/10/17 08:10:35;;;;;;;2.75;1.65;;;;;;;;;;4994795;28;20105;-34
2023/10/17 08:13:02;;;;;;;2.88;1.60;;;;;;;;;;4994636;28;20026;-35
2023/10/17 08:16:23;;;;;;;4.63;2.03;;;;;;;;;;4994816;28;20400;-34
2023/10/17 08:18:28;;;;;;;3.72;1.95;;;;;;;;;;4996633;28;20053;-34
2023/10/17 08:23:42;;;;;;;3.45;1.95;;;;;;;;;;5003262;28;20026;-34
2023/10/17 08:26:12;;;;;;;3.15;1.85;;;;;;;;;;4994553;28;20027;-35
2023/10/17 08:34:16;;;;;;;4.47;1.98;;;;;;;;;;4992096;28;20537;-34
2023/10/17 08:36:53;;;;;;;5.95;2.33;;;;;;;;;;4993722;28;20053;-36
2023/10/17 08:42:11;;;;;;;4.57;1.70;;;;;;;;;;4994281;28;20018;-34
2023/10/17 08:44:39;;;;;;;4.28;1.70;;;;;;;;;;4993852;28;20065;-34
2023/10/17 08:47:30;;;;;;;4.00;1.80;;;;;;;;;;4993670;28;20105;-34
2023/10/17 08:49:54;;;;;;;4.85;1.85;;;;;;;;;;4993818;28;20393;-34
2023/10/17 08:52:28;;;;;;;4.93;2.20;;;;;;;;;;4994105;28;20022;-34
2023/10/17 08:54:55;;;;;;;3.63;1.92;;;;;;;;;;4994173;28;20030;-34
2023/10/17 08:57:23;;;;;;;4.88;1.92;;;;;;;;;;4994217;28;20034;-34
2023/10/17 09:04:54;;;;;;;4.63;1.67;;;;;;;;;;4993938;28;20513;-36
2023/10/17 09:10:36;;;;;;;6.35;1.95;;;;;;;;;;4993077;28;20057;-36
2023/10/17 09:15:53;;;;;;;5.35;1.80;;;;;;;;;;4993634;28;20129;-36
2023/10/17 09:18:40;;;;;;;3.35;1.90;;;;;;;;;;5012498;28;20100;-36
2023/10/17 09:21:08;;;;;;;2.80;1.60;;;;;;;;;;5032835;28;20113;-36
2023/10/17 09:23:39;;;;;;;3.40;1.50;;;;;;;;;;5032673;28;20061;-36
2023/10/17 09:26:12;;;;;;;5.28;1.90;;;;;;;;;;5018428;28;20106;-34
2023/10/17 09:28:42;;;;;;;4.03;1.77;;;;;;;;;;5012876;28;20113;-34
2023/10/17 09:31:12;;;;;;;4.57;1.70;;;;;;;;;;5012957;28;20072;-34
2023/10/17 09:33:48;;;;;;;5.85;1.70;;;;;;;;;;5005950;28;20136;-36
2023/10/17 09:36:18;;;;;;;2.38;1.35;;;;;;;;;;5002894;28;20038;-35
2023/10/17 09:38:46;;;;;;;5.57;1.58;;;;;;;;;;5000983;28;20033;-35
2023/10/17 09:41:20;;;;;;;4.45;1.80;;;;;;;;;;5002140;28;20028;-35
2023/10/17 09:43:48;;;;;;;8.43;2.00;;;;;;;;;;5002144;28;20057;-34
2023/10/17 09:46:15;;;;;;;3.88;1.48;;;;;;;;;;5004503;28;20055;-35
2023/10/17 09:48:43;;;;;;;6.32;1.83;;;;;;;;;;5012326;28;20022;-34
2023/10/17 09:51:22;;;;;;;6.30;1.80;;;;;;;;;;5012580;28;20026;-35
2023/10/17 09:53:53;;;;;;;4.63;1.75;;;;;;;;;;5012605;28;20097;-34
2023/10/17 09:56:22;;;;;;;6.22;1.80;;;;;;;;;;5012412;28;20030;-34
2023/10/17 09:58:54;;;;;;;5.25;1.63;;;;;;;;;;5012520;28;20571;-34
2023/10/17 10:01:27;;;;;;;8.67;1.67;;;;;;;;;;5010216;28;20432;-35
2023/10/17 10:04:01;;;;;;;6.40;2.00;;;;;;;;;;4992763;28;20389;-34
2023/10/17 10:06:32;;;;;;;9.50;1.77;;;;;;;;;;4992686;28;20034;-35
2023/10/17 10:09:06;;;;;;;5.03;1.70;;;;;;;;;;4992513;28;20041;-35
2023/10/17 10:11:51;;;;;;;6.25;1.52;;;;;;;;;;4994965;28;20081;-36
2023/10/17 10:14:25;;;;;;;4.63;1.30;;;;;;;;;;4996170;28;20030;-35
2023/10/17 10:16:57;;;;;;;6.47;1.50;;;;;;;;;;4993091;28;20027;-35
2023/10/17 10:20:00;;;;;;;6.95;1.70;;;;;;;;;;5031669;28;20033;-35
2023/10/17 10:22:47;;;;;;;8.10;2.17;;;;;;;;;;4984640;28;20040;-36
2023/10/17 10:25:14;;;;;;;4.22;1.75;;;;;;;;;;5009597;28;20038;-36
2023/10/17 10:27:41;;;;;;;4.85;1.52;;;;;;;;;;5011644;28;20057;-36
2023/10/17 10:30:29;;;;;;;7.75;1.60;;;;;;;;;;5011837;28;20389;-35
2023/10/17 10:32:57;;;;;;;7.57;1.90;;;;;;;;;;5011791;28;20044;-35
2023/10/17 10:35:24;;;;;;;8.35;1.77;;;;;;;;;;5011837;28;20059;-35
2023/10/17 10:37:55;;;;;;;7.88;1.70;;;;;;;;;;5011607;28;20048;-36
2023/10/17 10:40:23;;;;;;;9.70;1.40;;;;;;;;;;5011778;28;20033;-35
2023/10/17 10:42:52;;;;;;;6.97;1.70;;;;;;;;;;5011286;28;20120;-35
2023/10/17 10:45:38;;;;;;;7.07;1.80;;;;;;;;;;5011600;28;20106;-36
2023/10/17 10:48:14;;;;;;;9.60;1.73;;;;;;;;;;5011404;28;20038;-36
2023/10/17 10:50:55;;;;;;;5.25;1.60;;;;;;;;;;5011964;28;20038;-36
2023/10/17 10:53:29;;;;;;;7.25;1.75;;;;;;;;;;5011574;28;20048;-35
2023/10/17 10:56:00;;;;;;;6.55;1.50;;;;;;;;;;5011838;28;20037;-35
2023/10/17 10:58:28;;;;;;;11.35;1.70;;;;;;;;;;5011492;28;20163;-35
2023/10/17 11:00:58;;;;;;;8.93;2.08;;;;;;;;;;5011588;28;20439;-35
2023/10/17 11:03:25;;;;;;;6.60;1.80;;;;;;;;;;5011744;28;20041;-34
2023/10/17 11:06:03;;;;;;;3.72;1.30;;;;;;;;;;5011309;28;20137;-35
2023/10/17 11:08:46;;;;;;;3.75;1.45;;;;;;;;;;5015166;28;20045;-35
2023/10/17 11:11:14;;;;;;;5.35;1.70;;;;;;;;;;5015522;28;20030;-35
2023/10/17 11:13:45;;;;;;;7.72;1.58;;;;;;;;;;5015350;28;20155;-35
2023/10/17 11:16:16;;;;;;;8.75;1.92;;;;;;;;;;5015496;28;20117;-36
2023/10/17 11:18:44;;;;;;;10.93;1.60;;;;;;;;;;5015181;28;20117;-35
2023/10/17 11:21:11;;;;;;;359.98;12.50;;;;;;;;;;5013245;28;20064;-36
2023/10/17 11:23:40;;;;;;;36.95;3.00;;;;;;;;;;5002592;28;20181;-38
2023/10/17 11:26:12;;;;;;;65.57;3.33;;;;;;;;;;5007203;28;20026;-45
2023/10/17 11:28:46;;;;;;;42.30;3.77;;;;;;;;;;4997606;28;20038;-46
2023/10/17 11:31:22;;;;;;;64.90;4.70;;;;;;;;;;5014398;28;20050;-45
2023/10/17 11:33:56;;;;;;;45.30;3.45;;;;;;;;;;4997621;28;20049;-46
2023/10/17 11:36:23;;;;;;;33.03;2.63;;;;;;;;;;4994976;28;20034;-47
2023/10/17 11:38:58;;;;;;;16.27;2.40;;;;;;;;;;4994295;28;20034;-44
2023/10/17 11:41:39;;;;;;;46.38;3.35;;;;;;;;;;4993968;28;20042;-46
2023/10/17 11:44:09;;;;;;;29.65;2.33;;;;;;;;;;4994832;28;20501;-46
2023/10/17 11:46:37;;;;;;;27.77;3.00;;;;;;;;;;4995081;28;20030;-40
2023/10/17 11:52:04;;;;;;;101.57;9.30;;;;;;;;;;4994482;28;20041;-45
2023/10/17 11:54:31;;;;;;;675.22;44.92;;;;;;;;;;4994680;28;20121;-45
2023/10/17 11:57:14;;;;;;;467.88;31.85;;;;;;;;;;4995068;28;20487;-45
2023/10/17 11:59:57;;;;;;;258.08;20.17;;;;;;;;;;4995067;28;20038;-46
2023/10/17 12:02:25;;;;;;;267.55;21.40;;;;;;;;;;4995037;28;20030;-43
2023/10/17 12:04:53;;;;;;;233.68;17.05;;;;;;;;;;4995010;28;20065;-45
2023/10/17 12:07:20;;;;;;;159.73;12.95;;;;;;;;;;4994783;28;20070;-45
2023/10/17 12:09:46;;;;;;;207.38;18.23;;;;;;;;;;4994802;28;20507;-44
2023/10/17 12:12:18;;;;;;;177.00;16.52;;;;;;;;;;4994798;28;20682;-43
2023/10/17 12:14:47;;;;;;;138.82;12.38;;;;;;;;;;4994715;28;20038;-44
2023/10/17 12:17:18;;;;;;;126.78;13.02;;;;;;;;;;4994538;28;20042;-44
2023/10/17 12:19:46;;;;;;;91.65;8.98;;;;;;;;;;4994152;28;20133;-44
2023/10/17 12:22:13;;;;;;;65.70;7.13;;;;;;;;;;4994258;28;20034;-44
2023/10/17 12:24:42;;;;;;;48.15;5.57;;;;;;;;;;4994657;28;20018;-43
2023/10/17 12:27:12;;;;;;;53.42;6.28;;;;;;;;;;4994480;28;20065;-44
2023/10/17 12:29:44;;;;;;;40.33;4.90;;;;;;;;;;4994370;28;20035;-43
2023/10/17 12:32:11;;;;;;;41.88;4.97;;;;;;;;;;4994329;28;20030;-44
2023/10/17 12:34:39;;;;;;;34.88;3.53;;;;;;;;;;4994454;28;20110;-43
2023/10/17 12:37:10;;;;;;;32.25;3.50;;;;;;;;;;4994283;28;20121;-44
2023/10/17 12:39:40;;;;;;;22.63;3.75;;;;;;;;;;4994287;28;20122;-44
2023/10/17 12:42:07;;;;;;;24.77;3.35;;;;;;;;;;4994264;28;20225;-45
2023/10/17 12:44:34;;;;;;;19.17;2.83;;;;;;;;;;4994148;28;20202;-44
2023/10/17 12:47:01;;;;;;;15.30;1.95;;;;;;;;;;4994132;28;20144;-44
2023/10/17 12:49:28;;;;;;;9.90;1.98;;;;;;;;;;4994049;28;20041;-44
2023/10/17 12:51:56;;;;;;;16.30;2.25;;;;;;;;;;4994048;28;20445;-43
2023/10/17 12:54:26;;;;;;;19.85;2.28;;;;;;;;;;4993937;28;20797;-43
2023/10/17 12:56:53;;;;;;;11.40;1.55;;;;;;;;;;4994020;28;20066;-43
2023/10/17 12:59:20;;;;;;;13.77;1.70;;;;;;;;;;4993927;28;20038;-44
2023/10/17 13:01:48;;;;;;;21.10;2.45;;;;;;;;;;4993998;28;20424;-44
2023/10/17 13:04:15;;;;;;;24.85;2.28;;;;;;;;;;4993942;28;20049;-44
2023/10/17 13:06:42;;;;;;;26.98;2.63;;;;;;;;;;4996107;28;20038;-45
2023/10/17 13:09:11;;;;;;;26.00;2.10;;;;;;;;;;5003734;28;20030;-45
2023/10/17 13:11:38;;;;;;;15.52;1.58;;;;;;;;;;5002578;28;20396;-45
2023/10/17 13:14:05;;;;;;;12.68;1.40;;;;;;;;;;5002179;28;20037;-45
2023/10/17 13:16:34;;;;;;;7.40;1.20;;;;;;;;;;5003715;28;20021;-44
2023/10/17 13:19:06;;;;;;;6.45;0.90;;;;;;;;;;5002741;28;20030;-46
2023/10/17 13:21:32;;;;;;;;;;;;;;;;;;4996451;28;20042;-47
2023/10/17 13:23:59;;;;;;;10.27;1.48;;;;;;;;;;4993498;28;19999;-46
2023/10/17 13:26:27;;;;;;;5.53;0.95;;;;;;;;;;4993475;28;20062;-47
2023/10/17 13:28:54;;;;;;;7.10;1.50;;;;;;;;;;4995598;28;20038;-44
2023/10/17 13:31:21;;;;;;;8.25;1.10;;;;;;;;;;5000661;28;20104;-44
2023/10/17 13:33:55;;;;;;;10.43;1.48;;;;;;;;;;5005862;28;20768;-44
2023/10/17 13:36:22;;;;;;;11.27;1.13;;;;;;;;;;4995656;28;20038;-45
2023/10/17 13:38:49;;;;;;;11.27;1.27;;;;;;;;;;4999752;28;20443;-44
2023/10/17 13:41:16;;;;;;;7.18;1.00;;;;;;;;;;5002476;28;20033;-45
2023/10/17 13:43:44;;;;;;;9.27;1.35;;;;;;;;;;5001462;28;20034;-44
2023/10/17 13:46:12;;;;;;;8.90;1.35;;;;;;;;;;5000420;28;20054;-46
2023/10/17 13:48:40;;;;;;;10.50;1.17;;;;;;;;;;5001798;28;20052;-47
2023/10/17 13:51:07;;;;;;;15.10;1.50;;;;;;;;;;5000957;28;20105;-46
2023/10/17 13:53:36;;;;;;;11.27;1.45;;;;;;;;;;5002683;28;20485;-46
2023/10/17 13:56:07;;;;;;;5.68;1.35;;;;;;;;;;5012467;28;20126;-46
2023/10/17 13:58:36;;;;;;;17.23;1.50;;;;;;;;;;5006285;28;20097;-47
2023/10/17 14:01:27;;;;;;;11.98;1.38;;;;;;;;;;5012378;28;20404;-44
2023/10/17 14:03:51;;;;;;;8.18;1.10;;;;;;;;;;5030597;28;20033;-44
2023/10/17 14:06:18;;;;;;;11.63;1.35;;;;;;;;;;5024176;28;20132;-45
2023/10/17 14:08:45;;;;;;;10.05;1.10;;;;;;;;;;5000700;28;20478;-44
2023/10/17 14:11:17;;;;;;;3.53;0.90;;;;;;;;;;5012284;28;20041;-44
2023/10/17 14:13:44;;;;;;;;;;;;;;;;;;5012654;28;20038;-44
2023/10/17 14:16:11;;;;;;;6.80;1.13;;;;;;;;;;5012124;28;20438;-44
2023/10/17 14:18:43;;;;;;;9.05;1.00;;;;;;;;;;5012082;28;20088;-44
2023/10/17 14:23:58;;;;;;;8.00;1.13;;;;;;;;;;5012379;28;20044;-44
2023/10/17 14:26:27;;;;;;;9.23;0.75;;;;;;;;;;5010716;28;20033;-44
2023/10/17 14:29:02;;;;;;;3.35;0.70;;;;;;;;;;5011811;28;20390;-44
2023/10/17 14:31:30;;;;;;;10.43;0.82;;;;;;;;;;5001825;28;20380;-45
2023/10/17 14:33:59;;;;;;;7.63;0.90;;;;;;;;;;4998724;28;20029;-44
2023/10/17 14:36:29;;;;;;;5.80;1.48;;;;;;;;;;5002520;28;20042;-44
2023/10/17 14:38:58;;;;;;;7.15;1.30;;;;;;;;;;5001122;28;20025;-44
2023/10/17 14:41:25;;;;;;;9.18;1.30;;;;;;;;;;5002137;28;20034;-45
2023/10/17 14:43:54;;;;;;;5.07;0.77;;;;;;;;;;5000400;28;20054;-45
2023/10/17 14:46:21;;;;;;;9.30;1.10;;;;;;;;;;5001740;28;20037;-44
2023/10/17 14:48:49;;;;;;;5.45;1.38;;;;;;;;;;5006390;28;20064;-44
2023/10/17 14:51:16;;;;;;;5.13;0.85;;;;;;;;;;5010904;28;20092;-44
2023/10/17 14:53:43;;;;;;;26.20;3.13;;;;;;;;;;5008548;28;20022;-43
2023/10/17 14:56:14;;;;;;;15.15;2.00;;;;;;;;;;5004385;28;20105;-42
2023/10/17 14:58:52;;;;;;;42.10;3.67;;;;;;;;;;5003128;28;20038;-44
2023/10/17 15:01:19;;;;;;;21.00;1.70;;;;;;;;;;5009855;28;20554;-47
2023/10/17 15:03:47;;;;;;;9.82;1.38;;;;;;;;;;4996176;28;20080;-43
2023/10/17 15:06:14;;;;;;;13.75;1.45;;;;;;;;;;5010405;28;20029;-43
2023/10/17 15:08:42;;;;;;;5.55;1.02;;;;;;;;;;5011017;28;20038;-41
2023/10/17 15:11:10;;;;;;;12.75;1.30;;;;;;;;;;5011636;28;20104;-43
2023/10/17 15:13:38;;;;;;;8.43;1.00;;;;;;;;;;5010296;28;20045;-43
2023/10/17 15:16:16;;;;;;;11.93;1.73;;;;;;;;;;5008348;28;20393;-44
2023/10/17 15:18:44;;;;;;;10.82;1.17;;;;;;;;;;5001548;28;20023;-44
2023/10/17 15:21:15;;;;;;;6.43;1.20;;;;;;;;;;5001302;28;20035;-45
2023/10/17 15:23:45;;;;;;;11.93;1.40;;;;;;;;;;5002154;28;20038;-45
2023/10/17 15:26:12;;;;;;;7.95;1.00;;;;;;;;;;5001959;28;20026;-44
2023/10/17 15:28:50;;;;;;;8.57;0.90;;;;;;;;;;4999131;28;20686;-43
2023/10/17 15:31:17;;;;;;;4.22;1.00;;;;;;;;;;4995257;28;20110;-44
2023/10/17 15:33:44;;;;;;;5.43;1.05;;;;;;;;;;5000274;28;20516;-44
2023/10/17 15:36:12;;;;;;;8.45;0.80;;;;;;;;;;5001935;28;20084;-43
2023/10/17 15:38:40;;;;;;;7.43;1.10;;;;;;;;;;4993512;28;20036;-45
2023/10/17 15:41:10;;;;;;;5.55;0.88;;;;;;;;;;4998034;28;20108;-44
2023/10/17 15:43:37;;;;;;;9.68;0.90;;;;;;;;;;4995840;28;20054;-44
2023/10/17 15:46:04;;;;;;;8.43;0.90;;;;;;;;;;5001669;28;20088;-43
2023/10/17 15:48:32;;;;;;;11.50;0.93;;;;;;;;;;5001548;28;20042;-43
2023/10/17 15:51:00;;;;;;;12.45;1.10;;;;;;;;;;4997301;28;20038;-44
2023/10/17 15:53:28;;;;;;;9.65;1.00;;;;;;;;;;5001961;28;20034;-39
2023/10/17 15:55:56;;;;;;;10.95;1.10;;;;;;;;;;4996726;28;20038;-38
2023/10/17 15:58:24;;;;;;;12.15;1.50;;;;;;;;;;4996713;28;20507;-39
2023/10/17 16:00:55;;;;;;;5.97;1.17;;;;;;;;;;4997136;28;20033;-39
2023/10/17 16:03:22;;;;;;;9.50;1.15;;;;;;;;;;4999727;28;20096;-39
2023/10/17 16:05:54;;;;;;;7.95;1.40;;;;;;;;;;4998421;28;20030;-41
2023/10/17 16:08:21;;;;;;;9.73;0.98;;;;;;;;;;5007942;28;20060;-40
2023/10/17 16:10:56;;;;;;;7.43;1.00;;;;;;;;;;4996778;28;20030;-39
2023/10/17 16:13:24;;;;;;;7.97;1.20;;;;;;;;;;5003181;28;20087;-39
2023/10/17 16:15:58;;;;;;;14.23;1.20;;;;;;;;;;5011050;28;20034;-38
2023/10/17 16:18:25;;;;;;;6.30;1.00;;;;;;;;;;5012752;28;20136;-39
2023/10/17 16:20:52;;;;;;;9.82;1.00;;;;;;;;;;5014238;28;20057;-39
2023/10/17 16:23:20;;;;;;;6.00;1.17;;;;;;;;;;5014226;28;20049;-38
2023/10/17 16:25:52;;;;;;;9.68;0.90;;;;;;;;;;5014091;28;20040;-37
2023/10/17 16:28:19;;;;;;;8.38;1.05;;;;;;;;;;5013860;28;20034;-41
2023/10/17 16:30:47;;;;;;;6.68;1.00;;;;;;;;;;5014056;28;20049;-42
2023/10/17 16:33:14;;;;;;;6.47;1.15;;;;;;;;;;5007866;28;20034;-39
2023/10/17 16:35:44;;;;;;;3.78;1.08;;;;;;;;;;5013933;28;20029;-44
2023/10/17 16:38:14;;;;;;;7.18;1.02;;;;;;;;;;5012616;28;20044;-45
2023/10/17 16:40:44;;;;;;;7.85;0.70;;;;;;;;;;5010940;28;20764;-43
2023/10/17 16:43:12;;;;;;;2.88;0.63;;;;;;;;;;5008614;28;20140;-38
2023/10/17 16:45:39;;;;;;;4.75;0.80;;;;;;;;;;5013839;28;20475;-40
2023/10/17 16:48:06;;;;;;;4.95;0.85;;;;;;;;;;5013634;28;20038;-42
2023/10/17 16:50:34;;;;;;;6.28;0.85;;;;;;;;;;5013733;28;20034;-38
2023/10/17 16:53:01;;;;;;;2.38;0.70;;;;;;;;;;5013717;28;20026;-39
2023/10/17 16:55:28;;;;;;;4.05;1.00;;;;;;;;;;5013603;28;20038;-39
2023/10/17 16:57:55;;;;;;;7.03;0.93;;;;;;;;;;5012654;28;20058;-40
2023/10/17 17:00:27;;;;;;;2.05;0.70;;;;;;;;;;5004535;28;20484;-39
2023/10/17 17:02:56;;;;;;;;;;;;;;;;;;5003134;28;20029;-40
2023/10/17 17:05:23;;;;;;;10.80;1.20;;;;;;;;;;5004034;28;19909;-42
2023/10/17 17:07:50;;;;;;;9.00;0.93;;;;;;;;;;4992933;28;20030;-41
2023/10/17 17:10:19;;;;;;;8.45;0.98;;;;;;;;;;4993761;28;20077;-39
2023/10/17 17:12:47;;;;;;;3.83;0.75;;;;;;;;;;4993703;28;20026;-40
2023/10/17 17:15:15;;;;;;;8.27;0.77;;;;;;;;;;4993619;28;20048;-42
2023/10/17 17:17:45;;;;;;;4.93;0.93;;;;;;;;;;4993415;28;20026;-39
2023/10/17 17:20:15;;;;;;;6.40;0.80;;;;;;;;;;4993599;28;20038;-47
2023/10/17 17:22:43;;;;;;;3.65;0.80;;;;;;;;;;4992168;28;20108;-45
2023/10/17 17:25:13;;;;;;;3.60;0.70;;;;;;;;;;4993527;28;20033;-38
2023/10/17 17:27:41;;;;;;;4.75;0.73;;;;;;;;;;4993409;28;20498;-41
2023/10/17 17:30:08;;;;;;;6.47;0.93;;;;;;;;;;4993323;28;20571;-40
2023/10/17 17:32:35;;;;;;;7.75;0.77;;;;;;;;;;4993305;28;20030;-39
2023/10/17 17:35:06;;;;;;;3.30;0.70;;;;;;;;;;4993252;28;20129;-45
2023/10/17 17:37:34;;;;;;;5.57;0.85;;;;;;;;;;4993179;28;20038;-44
2023/10/17 17:40:01;;;;;;;4.93;0.80;;;;;;;;;;4992808;28;20030;-45
2023/10/17 17:42:28;;;;;;;14.55;1.10;;;;;;;;;;4995162;28;20038;-44
2023/10/17 17:45:03;;;;;;;16.88;1.98;;;;;;;;;;5006681;28;20053;-38